Time;durP1;ratioP1;P1;durP2;ratioP2;P2;SDS_P1;SDS_P2;PMS_P1;PMS_P2;Temp;Humidity;BMP_temperature;BMP_pressure;BME280_temperature;BME280_humidity;BME280_pressure;Samples;Min_cycle;Max_cycle;Signal;HPM_P1;HPM_P2
2022/10/24 00:01:00;;;;;;;7.70;2.17;;;15.60;99.90;;;;;;5114925;28;20198;-77
2022/10/24 00:03:28;;;;;;;7.03;2.03;;;15.50;99.90;;;;;;5115062;28;20222;-77
2022/10/24 00:05:55;;;;;;;6.60;2.23;;;15.50;99.90;;;;;;5114765;28;20655;-77
2022/10/24 00:08:21;;;;;;;6.20;2.00;;;15.40;99.90;;;;;;5114771;28;20264;-76
2022/10/24 00:10:49;;;;;;;6.10;2.23;;;15.40;99.90;;;;;;5114715;28;20229;-76
2022/10/24 00:13:17;;;;;;;9.47;2.30;;;15.30;99.90;;;;;;5114864;28;20196;-77
2022/10/24 00:15:45;;;;;;;4.63;1.90;;;15.20;99.90;;;;;;5114863;28;20204;-77
2022/10/24 00:18:11;;;;;;;5.33;2.10;;;15.10;99.90;;;;;;5114643;28;20269;-77
2022/10/24 00:20:40;;;;;;;6.10;2.10;;;15.20;99.90;;;;;;5114589;28;20203;-77
2022/10/24 00:23:07;;;;;;;6.43;2.17;;;15.10;99.90;;;;;;5114356;28;20663;-77
2022/10/24 00:25:34;;;;;;;6.23;2.30;;;15.10;99.90;;;;;;5114611;28;20196;-77
2022/10/24 00:28:00;;;;;;;7.10;2.20;;;15.10;99.90;;;;;;5114416;28;20589;-77
2022/10/24 00:30:27;;;;;;;8.13;2.33;;;15.10;99.90;;;;;;5114511;28;20202;-77
2022/10/24 00:32:54;;;;;;;8.63;2.10;;;15.00;99.90;;;;;;5114461;28;20249;-77
2022/10/24 00:35:21;;;;;;;7.30;2.13;;;14.90;99.90;;;;;;5114393;28;20206;-77
2022/10/24 00:37:49;;;;;;;8.97;2.10;;;14.90;99.90;;;;;;5114259;28;20728;-76
2022/10/24 00:40:19;;;;;;;4.13;1.60;;;14.70;99.90;;;;;;5114257;28;20239;-76
2022/10/24 00:42:46;;;;;;;7.20;2.00;;;14.60;99.90;;;;;;5114260;28;20605;-77
2022/10/24 00:45:37;;;;;;;7.20;1.77;;;14.60;99.90;;;;;;5114151;28;20199;-76
2022/10/24 00:48:13;;;;;;;7.63;2.10;;;14.60;99.90;;;;;;5113934;28;20254;-77
2022/10/24 00:50:40;;;;;;;4.90;2.40;;;14.50;99.90;;;;;;5114260;28;20203;-77
2022/10/24 00:53:09;;;;;;;7.97;2.33;;;14.50;99.90;;;;;;5114089;28;20245;-77
2022/10/24 00:55:37;;;;;;;6.87;1.90;;;14.40;99.90;;;;;;5113638;28;20196;-76
2022/10/24 00:58:04;;;;;;;6.60;2.10;;;14.40;99.90;;;;;;5113373;28;20695;-77
2022/10/24 01:00:34;;;;;;;7.87;1.97;;;14.40;99.90;;;;;;5113777;28;20199;-76
2022/10/24 01:03:01;;;;;;;6.20;1.97;;;14.30;99.90;;;;;;5114015;28;20192;-77
2022/10/24 01:05:33;;;;;;;10.60;2.23;;;14.30;99.90;;;;;;5113617;28;20643;-77
2022/10/24 01:08:13;;;;;;;10.27;2.40;;;14.30;99.90;;;;;;5113884;28;20233;-77
2022/10/24 01:10:49;;;;;;;5.23;2.10;;;14.20;99.90;;;;;;5113657;28;20673;-77
2022/10/24 01:13:26;;;;;;;4.73;2.40;;;14.00;99.90;;;;;;5113518;28;20252;-77
2022/10/24 01:16:02;;;;;;;5.90;2.53;;;13.90;99.90;;;;;;5113611;28;20672;-77
2022/10/24 01:18:34;;;;;;;9.20;2.70;;;13.90;99.90;;;;;;5113572;28;20215;-76
2022/10/24 01:21:11;;;;;;;9.37;2.60;;;13.70;99.90;;;;;;5113470;28;20800;-77
2022/10/24 01:23:57;;;;;;;6.63;2.10;;;13.80;99.90;;;;;;5113575;28;20195;-77
2022/10/24 01:27:07;;;;;;;6.97;2.40;;;13.80;99.90;;;;;;5113574;28;20198;-77
2022/10/24 01:29:56;;;;;;;5.53;2.33;;;13.80;99.90;;;;;;5112554;28;20203;-77
2022/10/24 01:32:37;;;;;;;6.70;2.27;;;13.80;99.90;;;;;;5113573;28;20290;-77
2022/10/24 01:35:10;;;;;;;5.80;2.40;;;13.70;99.90;;;;;;5113432;28;20226;-77
2022/10/24 01:37:42;;;;;;;6.03;2.30;;;13.70;99.90;;;;;;5113367;28;20207;-77
2022/10/24 01:40:16;;;;;;;5.70;2.27;;;13.50;99.90;;;;;;5112922;28;20239;-76
2022/10/24 01:42:44;;;;;;;7.53;2.53;;;13.50;99.90;;;;;;5113511;28;20597;-77
2022/10/24 01:45:17;;;;;;;5.17;2.20;;;13.40;99.90;;;;;;5113380;28;20200;-77
2022/10/24 01:47:50;;;;;;;8.63;2.43;;;13.40;99.90;;;;;;5113360;28;20195;-76
2022/10/24 01:50:19;;;;;;;5.03;2.60;;;13.30;99.90;;;;;;5113203;28;20250;-77
2022/10/24 01:52:47;;;;;;;7.60;2.87;;;13.30;99.90;;;;;;5113110;28;20212;-76
2022/10/24 01:55:14;;;;;;;8.87;2.90;;;13.30;99.90;;;;;;5113214;28;20195;-76
2022/10/24 01:57:41;;;;;;;5.67;2.70;;;13.20;99.90;;;;;;5113258;28;20195;-77
2022/10/24 02:00:14;;;;;;;6.80;2.70;;;13.20;99.90;;;;;;5113087;28;20223;-77
2022/10/24 02:02:45;;;;;;;12.67;3.20;;;13.10;99.90;;;;;;5112997;28;20597;-77
2022/10/24 02:05:16;;;;;;;5.23;2.70;;;13.10;99.90;;;;;;5112867;28;20278;-77
2022/10/24 02:07:47;;;;;;;11.40;3.30;;;13.10;99.90;;;;;;5114542;28;20609;-77
2022/10/24 02:10:18;;;;;;;7.87;3.30;;;13.30;99.90;;;;;;5117143;28;20203;-77
2022/10/24 02:12:49;;;;;;;9.53;3.40;;;13.20;99.90;;;;;;5117144;28;20203;-77
2022/10/24 02:15:21;;;;;;;7.10;2.80;;;13.20;99.90;;;;;;5116966;28;20248;-77
2022/10/24 02:17:49;;;;;;;9.27;3.07;;;13.20;99.90;;;;;;5116931;28;20655;-77
2022/10/24 02:20:16;;;;;;;5.63;2.97;;;13.20;99.90;;;;;;5116986;28;20288;-77
2022/10/24 02:22:51;;;;;;;7.13;3.57;;;13.20;99.90;;;;;;5117064;28;20210;-77
2022/10/24 02:25:22;;;;;;;9.70;3.43;;;13.20;99.90;;;;;;5116732;28;20581;-77
2022/10/24 02:27:53;;;;;;;9.07;3.50;;;13.20;99.90;;;;;;5116863;28;20199;-77
2022/10/24 02:30:22;;;;;;;14.57;7.10;;;13.20;99.90;;;;;;5116857;28;20643;-76
2022/10/24 02:32:53;;;;;;;11.03;6.30;;;13.10;99.90;;;;;;5117106;27;20226;-77
2022/10/24 02:35:25;;;;;;;10.67;6.43;;;13.10;99.90;;;;;;5117173;28;20249;-77
2022/10/24 02:37:57;;;;;;;14.17;7.70;;;13.00;99.90;;;;;;5116872;28;20201;-76
2022/10/24 02:40:24;;;;;;;9.27;5.80;;;12.90;99.90;;;;;;5116712;28;20247;-77
2022/10/24 02:42:54;;;;;;;8.67;5.47;;;12.80;99.90;;;;;;5116596;28;20700;-77
2022/10/24 02:45:22;;;;;;;11.17;3.87;;;12.90;99.90;;;;;;5116733;28;20202;-76
2022/10/24 02:47:56;;;;;;;9.90;3.40;;;12.80;99.90;;;;;;5116646;28;20199;-76
2022/10/24 02:50:23;;;;;;;7.27;3.20;;;13.00;99.90;;;;;;5116298;28;20540;-76
2022/10/24 02:52:50;;;;;;;9.30;3.50;;;12.90;99.90;;;;;;5116372;28;20196;-76
2022/10/24 02:55:17;;;;;;;9.97;3.63;;;12.80;99.90;;;;;;5116222;28;20203;-76
2022/10/24 02:57:43;;;;;;;7.70;4.20;;;12.70;99.90;;;;;;5116567;28;20195;-77
2022/10/24 03:00:11;;;;;;;7.80;3.80;;;12.70;99.90;;;;;;5116126;28;20242;-77
2022/10/24 03:02:38;;;;;;;20.57;4.53;;;12.70;99.90;;;;;;5116301;28;20249;-76
2022/10/24 03:05:07;;;;;;;7.20;3.90;;;12.60;99.90;;;;;;5116118;28;20199;-76
2022/10/24 03:07:33;;;;;;;7.43;3.73;;;12.60;99.90;;;;;;5116018;28;20226;-75
2022/10/24 03:10:00;;;;;;;6.50;3.30;;;12.60;99.90;;;;;;5116214;28;20292;-76
2022/10/24 03:12:26;;;;;;;8.30;4.20;;;12.70;99.90;;;;;;5116136;28;20206;-76
2022/10/24 03:14:53;;;;;;;5.40;3.37;;;12.80;99.90;;;;;;5116061;28;20200;-76
2022/10/24 03:17:20;;;;;;;6.77;3.70;;;12.70;99.90;;;;;;5115974;28;20203;-76
2022/10/24 03:19:47;;;;;;;6.83;3.97;;;12.70;99.90;;;;;;5115112;28;20744;-76
2022/10/24 03:22:15;;;;;;;8.50;3.50;;;12.70;99.90;;;;;;5115595;28;20200;-76
2022/10/24 03:24:42;;;;;;;9.03;3.67;;;12.80;99.90;;;;;;5115924;28;20225;-79
2022/10/24 03:27:08;;;;;;;7.90;3.57;;;12.80;99.90;;;;;;5115736;28;20203;-78
2022/10/24 03:29:35;;;;;;;7.17;3.90;;;12.70;99.90;;;;;;5115429;28;20651;-76
2022/10/24 03:32:02;;;;;;;6.03;3.40;;;12.70;99.90;;;;;;5115597;28;20196;-77
2022/10/24 03:34:28;;;;;;;6.13;3.70;;;12.70;99.90;;;;;;5115607;28;20203;-76
2022/10/24 03:36:55;;;;;;;8.97;3.07;;;12.70;99.90;;;;;;5115380;28;20204;-76
2022/10/24 03:39:23;;;;;;;12.50;3.73;;;12.80;99.90;;;;;;5115324;28;20267;-76
2022/10/24 03:41:50;;;;;;;8.70;3.63;;;12.90;99.90;;;;;;5115475;28;20253;-77
2022/10/24 03:44:17;;;;;;;8.17;3.77;;;12.90;99.90;;;;;;5115316;28;20191;-76
2022/10/24 03:46:43;;;;;;;9.53;4.00;;;12.90;99.90;;;;;;5115259;28;20203;-77
2022/10/24 03:49:10;;;;;;;9.07;4.10;;;13.00;99.90;;;;;;5115232;28;20381;-77
2022/10/24 03:51:37;;;;;;;10.03;4.10;;;13.00;99.90;;;;;;5115153;28;20204;-77
2022/10/24 03:54:03;;;;;;;6.37;3.50;;;13.00;99.90;;;;;;5115262;28;20229;-77
2022/10/24 03:56:31;;;;;;;6.80;3.83;;;12.90;99.90;;;;;;5115026;28;20219;-77
2022/10/24 03:58:58;;;;;;;12.87;3.87;;;12.90;99.90;;;;;;5114895;28;20705;-77
2022/10/24 04:01:25;;;;;;;5.97;3.13;;;12.90;99.90;;;;;;5114995;28;20221;-77
2022/10/24 04:03:51;;;;;;;7.53;3.50;;;12.90;99.90;;;;;;5114912;28;20264;-76
2022/10/24 04:06:18;;;;;;;8.33;3.53;;;12.90;99.90;;;;;;5114796;28;20203;-76
2022/10/24 04:08:45;;;;;;;8.80;3.47;;;12.90;99.90;;;;;;5114698;28;20544;-77
2022/10/24 04:11:11;;;;;;;10.30;3.53;;;12.80;99.90;;;;;;5114769;28;20265;-77
2022/10/24 04:13:40;;;;;;;9.13;3.40;;;12.70;99.90;;;;;;5115074;28;20249;-77
2022/10/24 04:16:07;;;;;;;7.97;3.33;;;12.70;99.90;;;;;;5114713;28;20191;-77
2022/10/24 04:18:34;;;;;;;8.63;3.70;;;12.60;99.90;;;;;;5114617;28;20698;-76
2022/10/24 04:21:02;;;;;;;7.20;3.43;;;12.50;99.90;;;;;;5114631;28;20452;-76
2022/10/24 04:23:33;;;;;;;7.67;3.00;;;12.50;99.90;;;;;;5114690;28;20249;-77
2022/10/24 04:25:59;;;;;;;7.63;3.70;;;12.40;99.90;;;;;;5114476;28;20669;-77
2022/10/24 04:28:28;;;;;;;9.73;3.20;;;12.40;99.90;;;;;;5114493;28;20199;-77
2022/10/24 04:30:57;;;;;;;8.97;4.23;;;12.50;99.90;;;;;;5113397;28;20204;-76
2022/10/24 04:33:24;;;;;;;7.17;3.40;;;12.50;99.90;;;;;;5114590;28;20196;-77
2022/10/24 04:35:51;;;;;;;6.43;3.40;;;12.70;99.90;;;;;;5114440;28;20210;-77
2022/10/24 04:38:18;;;;;;;10.20;3.73;;;12.70;99.90;;;;;;5114246;28;20196;-77
2022/10/24 04:40:46;;;;;;;12.27;3.80;;;12.70;99.90;;;;;;5113791;28;20280;-76
2022/10/24 04:43:13;;;;;;;8.53;3.73;;;12.90;99.90;;;;;;5114121;28;20229;-76
2022/10/24 04:45:39;;;;;;;8.03;3.70;;;12.80;99.90;;;;;;5113853;28;20196;-76
2022/10/24 04:48:08;;;;;;;9.27;3.43;;;12.80;99.90;;;;;;5114382;28;20196;-76
2022/10/24 04:50:34;;;;;;;8.87;4.10;;;12.70;99.90;;;;;;5114161;28;20203;-76
2022/10/24 04:53:01;;;;;;;13.90;4.77;;;12.70;99.90;;;;;;5113996;28;20249;-76
2022/10/24 04:55:28;;;;;;;10.10;4.10;;;12.70;99.90;;;;;;5113967;28;20234;-77
2022/10/24 04:57:55;;;;;;;7.77;3.57;;;12.80;99.90;;;;;;5113792;28;20202;-76
2022/10/24 05:00:22;;;;;;;9.97;3.63;;;13.20;99.90;;;;;;5113735;28;20231;-76
2022/10/24 05:02:49;;;;;;;7.23;4.00;;;13.20;99.90;;;;;;5113930;28;20625;-78
2022/10/24 05:05:17;;;;;;;9.37;4.03;;;13.40;99.90;;;;;;5113935;28;20203;-78
2022/10/24 05:07:43;;;;;;;8.87;4.43;;;13.20;99.90;;;;;;5113720;28;20257;-78
2022/10/24 05:10:11;;;;;;;12.47;4.43;;;13.10;99.90;;;;;;5113683;28;20244;-78
2022/10/24 05:12:37;;;;;;;11.60;5.57;;;13.10;99.90;;;;;;5113521;28;20199;-76
2022/10/24 05:15:06;;;;;;;9.97;4.60;;;13.00;99.90;;;;;;5113820;28;20200;-75
2022/10/24 05:17:33;;;;;;;10.73;4.50;;;13.00;99.90;;;;;;5113439;28;20269;-77
2022/10/24 05:19:59;;;;;;;11.80;4.70;;;13.00;99.90;;;;;;5113651;28;20219;-77
2022/10/24 05:22:27;;;;;;;14.73;5.60;;;12.90;99.90;;;;;;5113485;28;20191;-76
2022/10/24 05:24:54;;;;;;;9.00;5.50;;;12.90;99.90;;;;;;5113537;28;20264;-76
2022/10/24 05:27:23;;;;;;;13.80;6.30;;;13.00;99.90;;;;;;5113498;28;20192;-76
2022/10/24 05:29:50;;;;;;;13.67;7.87;;;12.90;99.90;;;;;;5113736;28;20192;-77
2022/10/24 05:32:17;;;;;;;15.80;8.37;;;13.00;99.90;;;;;;5113560;28;20200;-76
2022/10/24 05:34:43;;;;;;;19.27;8.30;;;13.00;99.90;;;;;;5113474;28;20253;-76
2022/10/24 05:37:10;;;;;;;15.00;5.57;;;12.90;99.90;;;;;;5113473;28;20245;-77
2022/10/24 05:39:38;;;;;;;12.40;4.90;;;13.00;99.90;;;;;;5113463;28;20228;-77
2022/10/24 05:42:05;;;;;;;13.27;4.47;;;13.00;99.90;;;;;;5115107;28;20651;-77
2022/10/24 05:44:32;;;;;;;8.50;4.00;;;13.20;99.90;;;;;;5113480;28;20249;-77
2022/10/24 05:46:58;;;;;;;10.17;3.97;;;13.20;99.90;;;;;;5113072;28;20199;-77
2022/10/24 05:49:25;;;;;;;10.37;3.93;;;13.30;99.90;;;;;;5113196;28;20195;-78
2022/10/24 05:51:52;;;;;;;12.07;4.17;;;13.30;99.90;;;;;;5112733;28;20226;-78
2022/10/24 05:54:18;;;;;;;8.80;3.63;;;13.60;99.90;;;;;;5112884;28;20207;-76
2022/10/24 05:56:46;;;;;;;11.93;3.73;;;13.60;99.90;;;;;;5113349;28;20261;-77
2022/10/24 05:59:13;;;;;;;9.17;3.50;;;13.60;99.90;;;;;;5112917;28;20249;-77
2022/10/24 06:01:40;;;;;;;6.50;3.53;;;13.70;99.90;;;;;;5112861;28;20658;-79
2022/10/24 06:04:07;;;;;;;7.60;3.50;;;13.90;99.90;;;;;;5113022;28;20676;-76
2022/10/24 06:06:37;;;;;;;10.40;3.80;;;14.30;99.90;;;;;;5112935;28;20191;-76
2022/10/24 06:09:04;;;;;;;9.20;3.30;;;14.40;99.90;;;;;;5112871;28;20199;-76
2022/10/24 06:11:31;;;;;;;9.30;3.13;;;14.40;99.90;;;;;;5113167;28;20203;-77
2022/10/24 06:13:59;;;;;;;9.67;3.87;;;14.50;99.90;;;;;;5113065;28;20195;-77
2022/10/24 06:16:26;;;;;;;7.13;3.40;;;14.60;99.90;;;;;;5112812;28;20204;-77
2022/10/24 06:18:53;;;;;;;7.40;3.27;;;14.70;99.90;;;;;;5112865;28;20195;-78
2022/10/24 06:21:20;;;;;;;9.57;3.20;;;14.80;99.90;;;;;;5112565;28;20223;-76
2022/10/24 06:23:47;;;;;;;15.13;3.13;;;14.70;99.90;;;;;;5113069;28;20550;-76
2022/10/24 06:26:13;;;;;;;12.13;3.33;;;14.80;99.90;;;;;;5112958;28;20196;-76
2022/10/24 06:28:41;;;;;;;5.77;3.40;;;14.80;99.90;;;;;;5112777;28;20261;-78
2022/10/24 06:31:11;;;;;;;6.70;2.93;;;14.80;99.90;;;;;;5112720;28;20233;-78
2022/10/24 06:33:38;;;;;;;10.70;3.37;;;14.90;99.90;;;;;;5113029;28;20192;-78
2022/10/24 06:36:08;;;;;;;18.03;3.87;;;15.00;99.90;;;;;;5112769;28;20196;-76
2022/10/24 06:38:36;;;;;;;8.37;3.33;;;15.10;99.90;;;;;;5113223;28;20295;-77
2022/10/24 06:41:07;;;;;;;11.23;2.87;;;15.10;99.90;;;;;;5113378;28;20311;-76
2022/10/24 06:43:37;;;;;;;5.47;3.00;;;15.20;99.90;;;;;;5112798;28;20199;-76
2022/10/24 06:46:16;;;;;;;9.90;3.70;;;15.20;99.90;;;;;;5113097;28;20655;-76
2022/10/24 06:48:44;;;;;;;8.27;3.27;;;15.20;99.90;;;;;;5112763;28;20203;-75
2022/10/24 06:51:14;;;;;;;9.87;3.23;;;15.20;99.90;;;;;;5112580;28;20230;-77
2022/10/24 06:53:41;;;;;;;9.10;3.13;;;15.30;99.90;;;;;;5112459;28;20200;-78
2022/10/24 06:56:08;;;;;;;7.50;3.10;;;15.30;99.90;;;;;;5115875;28;20195;-81
2022/10/24 06:58:36;;;;;;;11.20;3.67;;;15.30;99.90;;;;;;5116230;28;20237;-77
2022/10/24 07:01:09;;;;;;;11.00;3.13;;;15.00;99.90;;;;;;5115894;28;20223;-75
2022/10/24 07:03:36;;;;;;;9.27;3.73;;;14.70;99.90;;;;;;5116142;28;20196;-74
2022/10/24 07:06:06;;;;;;;21.97;4.30;;;14.40;99.90;;;;;;5116264;28;20577;-72
2022/10/24 07:08:33;;;;;;;22.43;4.13;;;13.40;99.90;;;;;;5116634;28;20202;-74
2022/10/24 07:11:00;;;;;;;17.43;4.93;;;13.20;99.90;;;;;;5123616;28;20216;-82
2022/10/24 07:13:26;;;;;;;12.10;4.00;;;13.20;99.90;;;;;;5123729;28;20204;-78
2022/10/24 07:15:54;;;;;;;10.27;3.90;;;13.30;99.90;;;;;;5119301;28;20204;-77
2022/10/24 07:18:22;;;;;;;14.20;4.40;;;13.30;99.90;;;;;;5118402;28;20247;-75
2022/10/24 07:20:48;;;;;;;15.53;4.37;;;13.20;99.90;;;;;;5117376;28;20200;-75
2022/10/24 07:23:15;;;;;;;9.60;3.63;;;13.00;99.90;;;;;;5116323;28;20200;-74
2022/10/24 07:25:42;;;;;;;10.53;4.40;;;13.00;99.90;;;;;;5115825;28;20249;-74
2022/10/24 07:28:09;;;;;;;10.67;4.23;;;12.90;99.90;;;;;;5116422;28;20199;-74
2022/10/24 07:30:37;;;;;;;9.43;3.90;;;12.90;99.90;;;;;;5115593;28;20774;-70
2022/10/24 07:33:04;;;;;;;11.63;3.90;;;12.90;99.90;;;;;;5115608;28;20196;-70
2022/10/24 07:35:32;;;;;;;7.63;3.57;;;12.90;99.90;;;;;;5115406;28;20199;-70
2022/10/24 07:37:59;;;;;;;5.43;3.50;;;12.80;99.90;;;;;;5115536;28;20238;-70
2022/10/24 07:40:25;;;;;;;6.67;4.03;;;12.80;99.90;;;;;;5115231;28;20601;-71
2022/10/24 07:42:52;;;;;;;11.50;5.00;;;12.80;99.90;;;;;;5115038;28;20558;-70
2022/10/24 07:45:19;;;;;;;11.30;5.20;;;12.90;99.90;;;;;;5115152;28;20199;-71
2022/10/24 07:47:45;;;;;;;10.20;5.17;;;13.00;99.90;;;;;;5115275;28;20233;-71
2022/10/24 07:50:12;;;;;;;10.13;3.90;;;13.10;99.90;;;;;;5115122;28;20219;-71
2022/10/24 07:52:40;;;;;;;9.30;3.73;;;13.00;99.90;;;;;;5115208;28;20245;-70
2022/10/24 07:55:07;;;;;;;7.67;4.00;;;13.00;99.90;;;;;;5114997;28;20199;-71
2022/10/24 07:57:34;;;;;;;10.30;3.80;;;13.00;99.90;;;;;;5114900;28;20651;-71
2022/10/24 08:00:00;;;;;;;9.30;4.67;;;13.00;99.90;;;;;;5115176;28;20605;-71
2022/10/24 08:02:27;;;;;;;11.80;4.90;;;13.10;99.90;;;;;;5114787;28;20655;-71
2022/10/24 08:04:54;;;;;;;9.83;5.27;;;13.10;99.90;;;;;;5114699;28;20196;-70
2022/10/24 08:07:20;;;;;;;15.03;5.17;;;13.20;99.90;;;;;;5114795;28;20248;-70
2022/10/24 08:09:50;;;;;;;12.83;5.60;;;13.20;99.90;;;;;;5114736;28;20195;-72
2022/10/24 08:12:17;;;;;;;11.87;5.57;;;13.20;99.90;;;;;;5114794;28;20210;-70
2022/10/24 08:14:44;;;;;;;16.93;5.87;;;13.20;99.90;;;;;;5114837;28;20200;-71
2022/10/24 08:17:11;;;;;;;11.10;5.07;;;13.30;99.90;;;;;;5114698;28;20195;-71
2022/10/24 08:19:40;;;;;;;8.30;3.70;;;13.30;99.90;;;;;;5114447;28;20249;-71
2022/10/24 08:22:07;;;;;;;11.97;4.83;;;13.30;99.90;;;;;;5114422;28;20562;-77
2022/10/24 08:24:34;;;;;;;14.10;5.70;;;13.30;99.90;;;;;;5114321;28;20199;-72
2022/10/24 08:27:02;;;;;;;13.67;6.00;;;13.40;99.90;;;;;;5114506;28;20252;-72
2022/10/24 08:29:29;;;;;;;10.33;5.87;;;13.40;99.90;;;;;;5114540;28;20252;-72
2022/10/24 08:31:56;;;;;;;9.07;4.80;;;13.50;99.90;;;;;;5114222;28;20292;-72
2022/10/24 08:34:23;;;;;;;15.23;6.33;;;13.60;99.90;;;;;;5114065;28;20206;-72
2022/10/24 08:36:50;;;;;;;11.17;6.50;;;13.60;99.90;;;;;;5114095;28;20192;-72
2022/10/24 08:39:18;;;;;;;11.73;6.83;;;13.70;99.90;;;;;;5114133;28;20246;-73
2022/10/24 08:41:49;;;;;;;12.63;6.13;;;13.70;99.90;;;;;;5114135;28;20199;-73
2022/10/24 08:44:23;;;;;;;13.13;6.60;;;13.80;99.90;;;;;;5114171;28;20314;-73
2022/10/24 08:46:55;;;;;;;10.57;6.20;;;13.80;99.90;;;;;;5114007;28;20256;-72
2022/10/24 08:49:29;;;;;;;12.43;6.17;;;13.80;99.90;;;;;;5113923;28;20196;-71
2022/10/24 08:52:00;;;;;;;13.40;6.00;;;13.80;99.90;;;;;;5113968;28;20219;-72
2022/10/24 08:54:32;;;;;;;15.43;6.67;;;13.70;99.90;;;;;;5113905;28;20203;-72
2022/10/24 08:57:01;;;;;;;11.63;6.10;;;13.80;99.90;;;;;;5113856;28;20254;-72
2022/10/24 08:59:30;;;;;;;16.10;7.13;;;13.80;99.90;;;;;;5113834;28;20340;-73
2022/10/24 09:02:01;;;;;;;21.20;7.43;;;13.80;99.90;;;;;;5113459;28;20225;-73
2022/10/24 09:04:35;;;;;;;14.70;7.33;;;13.80;99.90;;;;;;5113516;28;20537;-73
2022/10/24 09:07:03;;;;;;;14.00;6.87;;;13.80;99.90;;;;;;5113568;28;20214;-73
2022/10/24 09:09:36;;;;;;;18.27;7.07;;;13.90;99.90;;;;;;5113701;28;20195;-73
2022/10/24 09:12:08;;;;;;;13.00;6.57;;;13.90;99.90;;;;;;5113399;28;20234;-73
2022/10/24 09:14:40;;;;;;;13.37;6.37;;;13.90;99.90;;;;;;5113469;28;20217;-73
2022/10/24 09:17:13;;;;;;;11.97;6.00;;;14.00;99.90;;;;;;5113049;28;20195;-75
2022/10/24 09:19:40;;;;;;;11.00;5.57;;;14.00;99.90;;;;;;5113511;28;20200;-74
2022/10/24 09:22:11;;;;;;;20.73;5.80;;;14.00;99.90;;;;;;5113453;28;20248;-76
2022/10/24 09:24:42;;;;;;;13.30;6.27;;;14.00;99.90;;;;;;5113365;28;20204;-76
2022/10/24 09:27:14;;;;;;;15.87;5.40;;;14.10;99.90;;;;;;5113265;28;20655;-76
2022/10/24 09:29:42;;;;;;;11.40;5.80;;;14.10;99.90;;;;;;5113464;28;20253;-75
2022/10/24 09:32:16;;;;;;;16.60;5.73;;;14.10;99.90;;;;;;5113228;28;20227;-75
2022/10/24 09:34:43;;;;;;;10.77;5.40;;;14.10;99.90;;;;;;5113241;28;20740;-75
2022/10/24 09:37:36;;;;;;;10.10;5.87;;;14.20;99.90;;;;;;5113051;28;20196;-75
2022/10/24 09:40:07;;;;;;;11.97;5.47;;;14.20;99.90;;;;;;5112938;27;20584;-75
2022/10/24 09:42:34;;;;;;;11.40;5.43;;;14.20;99.90;;;;;;5113237;28;20249;-75
2022/10/24 09:45:16;;;;;;;9.90;5.17;;;14.20;99.90;;;;;;5112967;28;20253;-75
2022/10/24 09:47:43;;;;;;;11.50;5.23;;;14.20;99.90;;;;;;5112920;28;20200;-75
2022/10/24 09:50:20;;;;;;;11.00;5.23;;;14.30;99.90;;;;;;5113133;28;20204;-74
2022/10/24 09:52:50;;;;;;;8.43;5.23;;;14.20;99.90;;;;;;5112948;28;20215;-75
2022/10/24 09:55:19;;;;;;;8.20;5.10;;;14.30;99.90;;;;;;5111652;28;20248;-75
2022/10/24 09:57:46;;;;;;;10.97;4.63;;;14.30;99.90;;;;;;5111907;28;20555;-75
2022/10/24 10:00:25;;;;;;;9.00;5.07;;;14.40;99.90;;;;;;5110977;28;20195;-75
2022/10/24 10:03:01;;;;;;;11.57;5.23;;;14.40;99.90;;;;;;5112714;28;20664;-75
2022/10/24 10:05:41;;;;;;;12.67;5.90;;;14.50;99.90;;;;;;5112706;28;20285;-76
2022/10/24 10:08:15;;;;;;;13.43;6.03;;;14.50;99.90;;;;;;5112780;28;20295;-74
2022/10/24 10:10:41;;;;;;;8.93;5.57;;;14.50;99.90;;;;;;5112737;28;20206;-77
2022/10/24 10:13:22;;;;;;;12.23;5.20;;;14.60;99.90;;;;;;5112908;28;20195;-75
2022/10/24 10:15:53;;;;;;;10.17;5.13;;;14.70;99.90;;;;;;5112310;28;20282;-75
2022/10/24 10:18:33;;;;;;;10.87;4.80;;;14.50;99.90;;;;;;5104109;28;20196;-75
2022/10/24 10:21:10;;;;;;;12.33;4.83;;;14.70;99.90;;;;;;5112311;28;20207;-74
2022/10/24 10:23:39;;;;;;;11.03;5.00;;;14.70;99.90;;;;;;5112378;28;20237;-75
2022/10/24 10:26:19;;;;;;;10.77;4.37;;;14.60;99.90;;;;;;5111628;28;20203;-75
2022/10/24 10:28:55;;;;;;;8.57;4.07;;;14.70;99.90;;;;;;5112561;28;20244;-75
2022/10/24 10:31:26;;;;;;;11.53;4.73;;;14.60;99.90;;;;;;5117568;28;20219;-76
2022/10/24 10:34:17;;;;;;;10.00;4.50;;;14.60;99.90;;;;;;5116868;28;20203;-75
2022/10/24 10:36:57;;;;;;;7.63;4.03;;;14.60;99.90;;;;;;5116883;28;20256;-75
2022/10/24 10:39:45;;;;;;;8.20;4.27;;;14.70;99.90;;;;;;5115037;28;20235;-75
2022/10/24 10:42:19;;;;;;;7.73;4.33;;;14.60;99.90;;;;;;5116533;28;20200;-76
2022/10/24 10:45:02;;;;;;;8.03;4.60;;;14.60;99.90;;;;;;5116287;28;20191;-75
2022/10/24 10:47:42;;;;;;;10.10;4.57;;;14.60;99.90;;;;;;5115753;28;20199;-75
2022/10/24 10:50:21;;;;;;;7.97;3.90;;;14.60;99.90;;;;;;5116496;28;20655;-76
2022/10/24 10:52:49;;;;;;;11.63;4.60;;;14.70;99.90;;;;;;5115866;28;20219;-75
2022/10/24 10:55:27;;;;;;;12.40;4.37;;;14.60;99.90;;;;;;5116183;28;20192;-76
2022/10/24 10:58:00;;;;;;;7.90;4.07;;;14.80;99.90;;;;;;5115808;28;20739;-76
2022/10/24 11:00:35;;;;;;;9.27;4.33;;;14.70;99.90;;;;;;5116158;28;20195;-75
2022/10/24 11:03:16;;;;;;;8.03;3.70;;;14.80;99.90;;;;;;5115581;28;20195;-76
2022/10/24 11:05:52;;;;;;;11.90;3.70;;;14.70;99.90;;;;;;5116571;28;20290;-76
2022/10/24 11:08:46;;;;;;;12.37;4.00;;;14.90;99.90;;;;;;5119156;28;20487;-76
2022/10/24 11:11:17;;;;;;;9.05;3.42;;;14.90;99.90;;;;;;5115834;28;20228;-78
2022/10/24 11:13:51;;;;;;;10.95;3.95;;;14.90;99.90;;;;;;5116013;28;20261;-77
2022/10/24 11:16:23;;;;;;;8.13;3.60;;;14.90;99.90;;;;;;5115983;28;20207;-77
2022/10/24 11:18:54;;;;;;;8.80;3.57;;;14.90;99.90;;;;;;5115903;28;20200;-77
2022/10/24 11:21:24;;;;;;;8.23;3.47;;;14.90;99.90;;;;;;5115680;28;20200;-77
2022/10/24 11:23:54;;;;;;;12.23;3.83;;;14.90;99.90;;;;;;5107912;28;20196;-75
2022/10/24 11:26:31;;;;;;;7.37;3.33;;;14.90;99.90;;;;;;5100889;28;20200;-76
2022/10/24 11:29:02;;;;;;;10.07;3.83;;;14.90;99.90;;;;;;5094835;28;20196;-75
2022/10/24 11:31:35;;;;;;;6.83;3.80;;;14.90;99.90;;;;;;5094700;28;20219;-77
2022/10/24 11:34:11;;;;;;;8.30;3.60;;;15.00;99.90;;;;;;5094681;28;20201;-75
2022/10/24 11:36:45;;;;;;;8.37;3.33;;;14.90;99.90;;;;;;5095173;28;20208;-76
2022/10/24 11:39:18;;;;;;;8.63;3.58;;;14.80;99.90;;;;;;5094852;28;20260;-75
2022/10/24 11:41:51;;;;;;;12.10;3.90;;;14.70;99.90;;;;;;5094035;28;20200;-78
2022/10/24 11:44:37;;;;;;;7.63;3.30;;;14.80;99.90;;;;;;5094534;28;20656;-75
2022/10/24 11:47:32;;;;;;;10.37;3.10;;;15.00;99.90;;;;;;5090799;28;20249;-74
2022/10/24 11:50:07;;;;;;;7.20;3.27;;;14.90;99.90;;;;;;5094645;28;20227;-75
2022/10/24 11:52:39;;;;;;;6.77;3.33;;;14.90;99.90;;;;;;5094373;28;20288;-74
2022/10/24 11:55:11;;;;;;;7.03;3.10;;;14.80;99.90;;;;;;5108902;28;20203;-76
2022/10/24 11:57:39;;;;;;;10.37;3.30;;;14.90;99.90;;;;;;5114707;28;20608;-75
2022/10/24 12:00:06;;;;;;;8.33;3.30;;;14.80;99.90;;;;;;5114918;28;20203;-75
2022/10/24 12:03:09;;;;;;;6.53;3.10;;;14.80;99.90;;;;;;5114710;28;20549;-74
2022/10/24 12:06:02;;;;;;;7.50;3.30;;;14.90;99.90;;;;;;5114902;28;20218;-75
2022/10/24 12:08:52;;;;;;;6.20;3.27;;;14.90;99.90;;;;;;5114961;27;20199;-75
2022/10/24 12:11:39;;;;;;;11.57;3.22;;;14.80;99.90;;;;;;5114472;28;20195;-75
2022/10/24 12:14:33;;;;;;;6.07;3.10;;;15.00;99.90;;;;;;5114536;28;20249;-75
2022/10/24 12:17:18;;;;;;;9.70;3.67;;;15.00;99.90;;;;;;5114519;28;20199;-75
2022/10/24 12:19:45;;;;;;;8.98;3.08;;;15.10;99.90;;;;;;5114161;28;20195;-75
2022/10/24 12:22:20;;;;;;;7.88;3.30;;;15.10;99.90;;;;;;5114372;28;20229;-75
2022/10/24 12:24:47;;;;;;;9.00;3.50;;;15.30;99.90;;;;;;5114501;28;20215;-75
2022/10/24 12:27:29;;;;;;;8.43;3.25;;;15.60;99.90;;;;;;5114130;28;20203;-76
2022/10/24 12:30:02;;;;;;;9.55;3.10;;;15.40;99.90;;;;;;5114293;28;20244;-76
2022/10/24 12:32:37;;;;;;;11.45;3.53;;;15.40;99.90;;;;;;5113910;28;20277;-77
2022/10/24 12:35:56;;;;;;;10.80;3.20;;;15.50;99.90;;;;;;5113966;28;20689;-76
2022/10/24 12:38:59;;;;;;;8.25;2.92;;;15.60;99.90;;;;;;5114133;28;20286;-76
2022/10/24 12:41:54;;;;;;;7.80;3.25;;;15.60;99.90;;;;;;5113938;28;20195;-76
2022/10/24 12:44:39;;;;;;;9.77;3.42;;;15.30;99.90;;;;;;5067019;28;20288;-76
2022/10/24 12:47:30;;;;;;;9.43;3.13;;;15.30;99.90;;;;;;5093778;28;20590;-76
2022/10/24 12:49:58;;;;;;;6.15;3.05;;;15.40;99.90;;;;;;5093743;28;20200;-76
2022/10/24 12:52:49;;;;;;;7.35;2.70;;;15.30;99.90;;;;;;5092863;28;20269;-76
2022/10/24 12:55:31;;;;;;;10.85;3.30;;;15.30;99.90;;;;;;5089218;28;20234;-76
2022/10/24 12:57:59;;;;;;;5.32;2.90;;;15.50;99.90;;;;;;5093367;28;20602;-77
2022/10/24 13:00:29;;;;;;;9.25;3.35;;;15.50;99.90;;;;;;5093452;28;20644;-77
2022/10/24 13:03:06;;;;;;;8.75;3.40;;;15.60;99.90;;;;;;5093515;28;20257;-77